sensor_id;sensor_type;location;lat;lon;timestamp;P1;durP1;ratioP1;P2;durP2;ratioP2
4756;SDS011;2392;52.578;13.426;2023-04-01T00:00:31;3.10;;;2.50;;
4756;SDS011;2392;52.578;13.426;2023-04-01T00:02:59;7.20;;;3.50;;
4756;SDS011;2392;52.578;13.426;2023-04-01T00:05:26;3.20;;;2.90;;
4756;SDS011;2392;52.578;13.426;2023-04-01T00:07:53;3.27;;;2.97;;
4756;SDS011;2392;52.578;13.426;2023-04-01T00:10:20;4.43;;;3.57;;
4756;SDS011;2392;52.578;13.426;2023-04-01T00:12:48;5.03;;;3.53;;
4756;SDS011;2392;52.578;13.426;2023-04-01T00:15:15;5.43;;;3.33;;
4756;SDS011;2392;52.578;13.426;2023-04-01T00:17:42;6.73;;;3.90;;
4756;SDS011;2392;52.578;13.426;2023-04-01T00:20:10;5.43;;;3.13;;
4756;SDS011;2392;52.578;13.426;2023-04-01T00:22:39;3.00;;;2.70;;
4756;SDS011;2392;52.578;13.426;2023-04-01T00:25:06;4.20;;;2.57;;
4756;SDS011;2392;52.578;13.426;2023-04-01T00:27:34;3.57;;;3.27;;
4756;SDS011;2392;52.578;13.426;2023-04-01T00:30:03;7.67;;;3.70;;
4756;SDS011;2392;52.578;13.426;2023-04-01T00:32:32;10.63;;;3.80;;
4756;SDS011;2392;52.578;13.426;2023-04-01T00:34:59;5.00;;;2.90;;
4756;SDS011;2392;52.578;13.426;2023-04-01T00:37:26;4.20;;;2.80;;
4756;SDS011;2392;52.578;13.426;2023-04-01T00:39:54;5.33;;;2.50;;
4756;SDS011;2392;52.578;13.426;2023-04-01T00:42:21;2.90;;;2.70;;
4756;SDS011;2392;52.578;13.426;2023-04-01T00:44:50;2.93;;;2.73;;
4756;SDS011;2392;52.578;13.426;2023-04-01T00:47:19;2.47;;;2.27;;
4756;SDS011;2392;52.578;13.426;2023-04-01T00:49:48;4.43;;;2.63;;
4756;SDS011;2392;52.578;13.426;2023-04-01T00:52:17;3.77;;;2.70;;
4756;SDS011;2392;52.578;13.426;2023-04-01T00:54:49;3.70;;;2.90;;
4756;SDS011;2392;52.578;13.426;2023-04-01T00:57:21;3.33;;;3.03;;
4756;SDS011;2392;52.578;13.426;2023-04-01T00:59:52;5.63;;;2.70;;
4756;SDS011;2392;52.578;13.426;2023-04-01T01:02:22;3.60;;;2.20;;
4756;SDS011;2392;52.578;13.426;2023-04-01T01:04:49;3.73;;;2.27;;
4756;SDS011;2392;52.578;13.426;2023-04-01T01:07:19;5.90;;;2.40;;
4756;SDS011;2392;52.578;13.426;2023-04-01T01:09:52;2.87;;;2.50;;
4756;SDS011;2392;52.578;13.426;2023-04-01T01:12:25;2.97;;;2.30;;
4756;SDS011;2392;52.578;13.426;2023-04-01T01:15:00;2.60;;;2.40;;
4756;SDS011;2392;52.578;13.426;2023-04-01T01:17:36;4.10;;;2.00;;
4756;SDS011;2392;52.578;13.426;2023-04-01T01:20:24;5.73;;;2.37;;
4756;SDS011;2392;52.578;13.426;2023-04-01T01:26:21;3.23;;;2.30;;
4756;SDS011;2392;52.578;13.426;2023-04-01T01:29:08;3.93;;;2.37;;
4756;SDS011;2392;52.578;13.426;2023-04-01T01:31:47;3.13;;;2.20;;
4756;SDS011;2392;52.578;13.426;2023-04-01T01:34:22;2.17;;;2.07;;
4756;SDS011;2392;52.578;13.426;2023-04-01T01:36:56;4.93;;;2.70;;
4756;SDS011;2392;52.578;13.426;2023-04-01T01:39:28;2.67;;;2.40;;
4756;SDS011;2392;52.578;13.426;2023-04-01T01:41:59;3.43;;;2.47;;
4756;SDS011;2392;52.578;13.426;2023-04-01T01:44:30;2.83;;;2.63;;
4756;SDS011;2392;52.578;13.426;2023-04-01T01:46:59;2.50;;;2.30;;
4756;SDS011;2392;52.578;13.426;2023-04-01T01:49:27;5.70;;;2.50;;
4756;SDS011;2392;52.578;13.426;2023-04-01T01:51:57;3.77;;;2.63;;
4756;SDS011;2392;52.578;13.426;2023-04-01T01:54:25;6.63;;;2.30;;
4756;SDS011;2392;52.578;13.426;2023-04-01T01:56:54;2.40;;;2.30;;
4756;SDS011;2392;52.578;13.426;2023-04-01T01:59:27;4.10;;;2.93;;
4756;SDS011;2392;52.578;13.426;2023-04-01T02:01:56;3.13;;;2.20;;
4756;SDS011;2392;52.578;13.426;2023-04-01T02:04:25;7.70;;;2.70;;
4756;SDS011;2392;52.578;13.426;2023-04-01T02:06:53;3.10;;;2.77;;
4756;SDS011;2392;52.578;13.426;2023-04-01T02:09:26;4.73;;;2.90;;
4756;SDS011;2392;52.578;13.426;2023-04-01T02:11:56;3.57;;;2.37;;
4756;SDS011;2392;52.578;13.426;2023-04-01T02:14:26;4.17;;;3.17;;
4756;SDS011;2392;52.578;13.426;2023-04-01T02:16:56;2.23;;;2.10;;
4756;SDS011;2392;52.578;13.426;2023-04-01T02:19:26;4.63;;;2.77;;
4756;SDS011;2392;52.578;13.426;2023-04-01T02:22:00;2.63;;;2.10;;
4756;SDS011;2392;52.578;13.426;2023-04-01T02:24:30;3.93;;;2.40;;
4756;SDS011;2392;52.578;13.426;2023-04-01T02:26:59;3.50;;;3.03;;
4756;SDS011;2392;52.578;13.426;2023-04-01T02:29:27;4.43;;;2.80;;
4756;SDS011;2392;52.578;13.426;2023-04-01T02:31:55;5.00;;;3.07;;
4756;SDS011;2392;52.578;13.426;2023-04-01T02:34:23;3.60;;;2.43;;
4756;SDS011;2392;52.578;13.426;2023-04-01T02:36:50;3.40;;;3.10;;
4756;SDS011;2392;52.578;13.426;2023-04-01T02:39:20;4.90;;;2.40;;
4756;SDS011;2392;52.578;13.426;2023-04-01T02:41:47;3.27;;;2.57;;
4756;SDS011;2392;52.578;13.426;2023-04-01T02:44:15;2.83;;;2.63;;
4756;SDS011;2392;52.578;13.426;2023-04-01T02:46:42;7.87;;;2.73;;
4756;SDS011;2392;52.578;13.426;2023-04-01T02:49:09;2.70;;;2.50;;
4756;SDS011;2392;52.578;13.426;2023-04-01T02:51:37;2.37;;;2.17;;
4756;SDS011;2392;52.578;13.426;2023-04-01T02:54:04;2.70;;;2.30;;
4756;SDS011;2392;52.578;13.426;2023-04-01T02:56:32;3.20;;;2.90;;
4756;SDS011;2392;52.578;13.426;2023-04-01T02:58:59;2.90;;;2.70;;
4756;SDS011;2392;52.578;13.426;2023-04-01T03:01:26;2.27;;;2.07;;
4756;SDS011;2392;52.578;13.426;2023-04-01T03:03:53;5.03;;;2.80;;
4756;SDS011;2392;52.578;13.426;2023-04-01T03:06:20;2.53;;;2.20;;
4756;SDS011;2392;52.578;13.426;2023-04-01T03:08:47;3.40;;;2.30;;
4756;SDS011;2392;52.578;13.426;2023-04-01T03:11:14;5.07;;;2.63;;
4756;SDS011;2392;52.578;13.426;2023-04-01T03:13:42;2.83;;;2.50;;
4756;SDS011;2392;52.578;13.426;2023-04-01T03:16:10;3.33;;;2.73;;
4756;SDS011;2392;52.578;13.426;2023-04-01T03:18:37;4.70;;;2.87;;
4756;SDS011;2392;52.578;13.426;2023-04-01T03:21:14;3.20;;;2.67;;
4756;SDS011;2392;52.578;13.426;2023-04-01T03:23:43;3.93;;;3.00;;
4756;SDS011;2392;52.578;13.426;2023-04-01T03:26:10;2.80;;;2.50;;
4756;SDS011;2392;52.578;13.426;2023-04-01T03:28:37;2.63;;;2.30;;
4756;SDS011;2392;52.578;13.426;2023-04-01T03:31:05;2.90;;;2.57;;
4756;SDS011;2392;52.578;13.426;2023-04-01T03:33:39;2.53;;;2.30;;
4756;SDS011;2392;52.578;13.426;2023-04-01T03:36:06;4.60;;;2.90;;
4756;SDS011;2392;52.578;13.426;2023-04-01T03:38:34;3.27;;;2.07;;
4756;SDS011;2392;52.578;13.426;2023-04-01T03:41:01;4.47;;;2.40;;
4756;SDS011;2392;52.578;13.426;2023-04-01T03:43:30;4.57;;;2.70;;
4756;SDS011;2392;52.578;13.426;2023-04-01T03:45:58;4.10;;;3.00;;
4756;SDS011;2392;52.578;13.426;2023-04-01T03:48:26;3.20;;;3.00;;
4756;SDS011;2392;52.578;13.426;2023-04-01T03:50:53;5.03;;;2.93;;
4756;SDS011;2392;52.578;13.426;2023-04-01T03:53:21;4.40;;;2.70;;
4756;SDS011;2392;52.578;13.426;2023-04-01T03:55:49;3.23;;;2.70;;
4756;SDS011;2392;52.578;13.426;2023-04-01T03:58:17;3.03;;;2.70;;
4756;SDS011;2392;52.578;13.426;2023-04-01T04:00:44;3.57;;;3.13;;
4756;SDS011;2392;52.578;13.426;2023-04-01T04:03:11;2.87;;;2.57;;
4756;SDS011;2392;52.578;13.426;2023-04-01T04:05:46;4.97;;;3.03;;
4756;SDS011;2392;52.578;13.426;2023-04-01T04:08:15;5.87;;;2.80;;
4756;SDS011;2392;52.578;13.426;2023-04-01T04:10:42;5.00;;;3.70;;
4756;SDS011;2392;52.578;13.426;2023-04-01T04:13:09;4.50;;;3.40;;
4756;SDS011;2392;52.578;13.426;2023-04-01T04:15:43;3.67;;;3.20;;
4756;SDS011;2392;52.578;13.426;2023-04-01T04:18:10;4.10;;;2.80;;
4756;SDS011;2392;52.578;13.426;2023-04-01T04:20:42;5.87;;;3.37;;
4756;SDS011;2392;52.578;13.426;2023-04-01T04:23:12;4.17;;;3.77;;
4756;SDS011;2392;52.578;13.426;2023-04-01T04:25:40;6.07;;;3.37;;
4756;SDS011;2392;52.578;13.426;2023-04-01T04:28:07;3.90;;;3.50;;
4756;SDS011;2392;52.578;13.426;2023-04-01T04:30:34;3.77;;;3.33;;
4756;SDS011;2392;52.578;13.426;2023-04-01T04:33:02;3.80;;;3.10;;
4756;SDS011;2392;52.578;13.426;2023-04-01T04:35:30;4.50;;;2.67;;
4756;SDS011;2392;52.578;13.426;2023-04-01T04:37:57;5.90;;;3.10;;
4756;SDS011;2392;52.578;13.426;2023-04-01T04:40:25;6.33;;;2.90;;
4756;SDS011;2392;52.578;13.426;2023-04-01T04:42:52;5.77;;;2.60;;
4756;SDS011;2392;52.578;13.426;2023-04-01T04:45:20;4.03;;;3.20;;
4756;SDS011;2392;52.578;13.426;2023-04-01T04:47:53;2.90;;;2.70;;
4756;SDS011;2392;52.578;13.426;2023-04-01T04:50:21;4.87;;;2.60;;
4756;SDS011;2392;52.578;13.426;2023-04-01T04:52:48;4.77;;;3.20;;
4756;SDS011;2392;52.578;13.426;2023-04-01T04:55:16;3.30;;;3.10;;
4756;SDS011;2392;52.578;13.426;2023-04-01T04:57:48;6.07;;;4.10;;
4756;SDS011;2392;52.578;13.426;2023-04-01T05:00:15;5.43;;;4.03;;
4756;SDS011;2392;52.578;13.426;2023-04-01T05:02:48;4.50;;;3.10;;
4756;SDS011;2392;52.578;13.426;2023-04-01T05:05:16;4.33;;;2.90;;
4756;SDS011;2392;52.578;13.426;2023-04-01T05:07:44;3.27;;;2.97;;
4756;SDS011;2392;52.578;13.426;2023-04-01T05:10:11;4.00;;;3.60;;
4756;SDS011;2392;52.578;13.426;2023-04-01T05:12:38;5.30;;;3.77;;
4756;SDS011;2392;52.578;13.426;2023-04-01T05:15:09;5.13;;;4.13;;
4756;SDS011;2392;52.578;13.426;2023-04-01T05:17:37;7.03;;;3.70;;
4756;SDS011;2392;52.578;13.426;2023-04-01T05:20:05;4.57;;;4.17;;
4756;SDS011;2392;52.578;13.426;2023-04-01T05:22:34;5.80;;;3.43;;
4756;SDS011;2392;52.578;13.426;2023-04-01T05:25:01;6.80;;;3.63;;
4756;SDS011;2392;52.578;13.426;2023-04-01T05:27:28;7.57;;;4.10;;
4756;SDS011;2392;52.578;13.426;2023-04-01T05:29:56;4.47;;;3.80;;
4756;SDS011;2392;52.578;13.426;2023-04-01T05:32:56;4.70;;;4.20;;
4756;SDS011;2392;52.578;13.426;2023-04-01T05:35:23;10.13;;;4.40;;
4756;SDS011;2392;52.578;13.426;2023-04-01T05:37:50;5.80;;;4.17;;
4756;SDS011;2392;52.578;13.426;2023-04-01T05:40:19;5.03;;;4.00;;
4756;SDS011;2392;52.578;13.426;2023-04-01T05:42:46;4.80;;;4.30;;
4756;SDS011;2392;52.578;13.426;2023-04-01T05:45:15;5.93;;;4.00;;
4756;SDS011;2392;52.578;13.426;2023-04-01T05:48:02;8.60;;;4.23;;
4756;SDS011;2392;52.578;13.426;2023-04-01T05:50:35;4.53;;;3.40;;
4756;SDS011;2392;52.578;13.426;2023-04-01T05:53:03;4.30;;;3.30;;
4756;SDS011;2392;52.578;13.426;2023-04-01T05:55:30;6.10;;;4.23;;
4756;SDS011;2392;52.578;13.426;2023-04-01T05:57:57;5.27;;;3.90;;
4756;SDS011;2392;52.578;13.426;2023-04-01T06:00:26;4.07;;;3.47;;
4756;SDS011;2392;52.578;13.426;2023-04-01T06:02:54;7.40;;;4.43;;
4756;SDS011;2392;52.578;13.426;2023-04-01T06:05:24;7.10;;;4.20;;
4756;SDS011;2392;52.578;13.426;2023-04-01T06:07:55;5.90;;;4.43;;
4756;SDS011;2392;52.578;13.426;2023-04-01T06:10:25;5.33;;;3.70;;
4756;SDS011;2392;52.578;13.426;2023-04-01T06:13:05;5.90;;;3.80;;
4756;SDS011;2392;52.578;13.426;2023-04-01T06:15:39;7.17;;;4.50;;
4756;SDS011;2392;52.578;13.426;2023-04-01T06:21:19;7.47;;;4.50;;
4756;SDS011;2392;52.578;13.426;2023-04-01T06:24:16;8.00;;;4.30;;
4756;SDS011;2392;52.578;13.426;2023-04-01T06:26:54;6.70;;;4.90;;
4756;SDS011;2392;52.578;13.426;2023-04-01T06:29:39;7.33;;;5.17;;
4756;SDS011;2392;52.578;13.426;2023-04-01T06:32:31;7.20;;;4.90;;
4756;SDS011;2392;52.578;13.426;2023-04-01T06:35:16;7.00;;;5.40;;
4756;SDS011;2392;52.578;13.426;2023-04-01T06:41:03;11.60;;;6.20;;
4756;SDS011;2392;52.578;13.426;2023-04-01T06:43:49;8.53;;;5.30;;
4756;SDS011;2392;52.578;13.426;2023-04-01T06:46:51;8.23;;;6.33;;
4756;SDS011;2392;52.578;13.426;2023-04-01T06:50:04;9.10;;;6.37;;
4756;SDS011;2392;52.578;13.426;2023-04-01T06:53:10;8.83;;;6.17;;
4756;SDS011;2392;52.578;13.426;2023-04-01T06:56:09;7.63;;;5.00;;
4756;SDS011;2392;52.578;13.426;2023-04-01T06:59:04;5.47;;;4.97;;
4756;SDS011;2392;52.578;13.426;2023-04-01T07:01:49;7.13;;;5.90;;
4756;SDS011;2392;52.578;13.426;2023-04-01T07:04:20;8.40;;;6.27;;
4756;SDS011;2392;52.578;13.426;2023-04-01T07:06:53;10.33;;;6.73;;
4756;SDS011;2392;52.578;13.426;2023-04-01T07:09:24;13.33;;;6.60;;
4756;SDS011;2392;52.578;13.426;2023-04-01T07:12:18;12.20;;;6.50;;
4756;SDS011;2392;52.578;13.426;2023-04-01T07:15:24;13.33;;;6.70;;
4756;SDS011;2392;52.578;13.426;2023-04-01T07:17:59;8.10;;;5.77;;
4756;SDS011;2392;52.578;13.426;2023-04-01T07:20:33;7.90;;;6.53;;
4756;SDS011;2392;52.578;13.426;2023-04-01T07:23:06;7.80;;;6.23;;
4756;SDS011;2392;52.578;13.426;2023-04-01T07:26:00;5.80;;;5.10;;
4756;SDS011;2392;52.578;13.426;2023-04-01T07:31:36;4.27;;;3.90;;
4756;SDS011;2392;52.578;13.426;2023-04-01T07:34:31;6.20;;;5.07;;
4756;SDS011;2392;52.578;13.426;2023-04-01T07:40:03;6.80;;;6.20;;
4756;SDS011;2392;52.578;13.426;2023-04-01T07:42:44;7.00;;;6.30;;
4756;SDS011;2392;52.578;13.426;2023-04-01T07:45:36;7.27;;;6.40;;
4756;SDS011;2392;52.578;13.426;2023-04-01T07:48:50;4.63;;;4.23;;
4756;SDS011;2392;52.578;13.426;2023-04-01T07:51:23;3.67;;;3.37;;
4756;SDS011;2392;52.578;13.426;2023-04-01T07:54:04;3.57;;;3.27;;
4756;SDS011;2392;52.578;13.426;2023-04-01T07:56:45;3.83;;;3.53;;
4756;SDS011;2392;52.578;13.426;2023-04-01T07:59:28;4.53;;;4.13;;
4756;SDS011;2392;52.578;13.426;2023-04-01T08:02:20;4.33;;;3.93;;
4756;SDS011;2392;52.578;13.426;2023-04-01T08:04:56;5.30;;;4.80;;
4756;SDS011;2392;52.578;13.426;2023-04-01T08:07:33;5.27;;;4.77;;
4756;SDS011;2392;52.578;13.426;2023-04-01T08:10:26;5.93;;;5.33;;
4756;SDS011;2392;52.578;13.426;2023-04-01T08:13:29;5.67;;;4.80;;
4756;SDS011;2392;52.578;13.426;2023-04-01T08:16:20;5.23;;;4.70;;
4756;SDS011;2392;52.578;13.426;2023-04-01T08:19:00;5.93;;;4.70;;
4756;SDS011;2392;52.578;13.426;2023-04-01T08:21:39;9.33;;;5.03;;
4756;SDS011;2392;52.578;13.426;2023-04-01T08:24:11;7.80;;;6.70;;
4756;SDS011;2392;52.578;13.426;2023-04-01T08:26:48;7.57;;;6.77;;
4756;SDS011;2392;52.578;13.426;2023-04-01T08:29:22;6.70;;;5.50;;
4756;SDS011;2392;52.578;13.426;2023-04-01T08:31:56;6.60;;;5.30;;
4756;SDS011;2392;52.578;13.426;2023-04-01T08:34:30;7.20;;;6.10;;
4756;SDS011;2392;52.578;13.426;2023-04-01T08:37:03;9.20;;;6.37;;
4756;SDS011;2392;52.578;13.426;2023-04-01T08:39:34;10.40;;;7.20;;
4756;SDS011;2392;52.578;13.426;2023-04-01T08:48:19;10.53;;;7.23;;
4756;SDS011;2392;52.578;13.426;2023-04-01T08:54:11;8.57;;;7.43;;
4756;SDS011;2392;52.578;13.426;2023-04-01T08:57:07;12.33;;;10.73;;
4756;SDS011;2392;52.578;13.426;2023-04-01T09:00:15;11.03;;;9.77;;
4756;SDS011;2392;52.578;13.426;2023-04-01T09:03:35;12.40;;;10.83;;
4756;SDS011;2392;52.578;13.426;2023-04-01T09:06:17;10.40;;;9.33;;
4756;SDS011;2392;52.578;13.426;2023-04-01T09:08:59;11.10;;;9.70;;
4756;SDS011;2392;52.578;13.426;2023-04-01T09:12:05;11.47;;;10.13;;
4756;SDS011;2392;52.578;13.426;2023-04-01T09:14:48;11.50;;;8.57;;
4756;SDS011;2392;52.578;13.426;2023-04-01T09:17:56;10.17;;;9.17;;
4756;SDS011;2392;52.578;13.426;2023-04-01T09:20:49;9.13;;;8.33;;
4756;SDS011;2392;52.578;13.426;2023-04-01T09:23:30;8.03;;;7.33;;
4756;SDS011;2392;52.578;13.426;2023-04-01T09:26:18;18.20;;;14.47;;
4756;SDS011;2392;52.578;13.426;2023-04-01T09:29:02;11.47;;;10.37;;
4756;SDS011;2392;52.578;13.426;2023-04-01T09:31:45;10.23;;;9.13;;
4756;SDS011;2392;52.578;13.426;2023-04-01T09:35:17;9.73;;;8.83;;
4756;SDS011;2392;52.578;13.426;2023-04-01T09:37:58;8.80;;;7.90;;
4756;SDS011;2392;52.578;13.426;2023-04-01T09:41:01;9.63;;;8.73;;
4756;SDS011;2392;52.578;13.426;2023-04-01T09:43:56;9.23;;;8.33;;
4756;SDS011;2392;52.578;13.426;2023-04-01T09:46:37;10.80;;;9.73;;
4756;SDS011;2392;52.578;13.426;2023-04-01T09:49:20;10.33;;;9.33;;
4756;SDS011;2392;52.578;13.426;2023-04-01T09:52:24;10.80;;;9.77;;
4756;SDS011;2392;52.578;13.426;2023-04-01T09:55:15;11.00;;;10.00;;
4756;SDS011;2392;52.578;13.426;2023-04-01T09:58:11;14.60;;;13.10;;
4756;SDS011;2392;52.578;13.426;2023-04-01T10:01:38;12.53;;;11.23;;
4756;SDS011;2392;52.578;13.426;2023-04-01T10:04:30;9.43;;;8.63;;
4756;SDS011;2392;52.578;13.426;2023-04-01T10:07:42;9.47;;;8.57;;
4756;SDS011;2392;52.578;13.426;2023-04-01T10:17:01;8.70;;;7.90;;
4756;SDS011;2392;52.578;13.426;2023-04-01T10:22:54;10.67;;;9.67;;
4756;SDS011;2392;52.578;13.426;2023-04-01T10:29:15;10.60;;;9.50;;
4756;SDS011;2392;52.578;13.426;2023-04-01T10:35:20;9.00;;;8.20;;
4756;SDS011;2392;52.578;13.426;2023-04-01T10:38:29;9.70;;;8.90;;
4756;SDS011;2392;52.578;13.426;2023-04-01T10:41:38;10.53;;;8.87;;
4756;SDS011;2392;52.578;13.426;2023-04-01T10:44:47;9.47;;;8.57;;
4756;SDS011;2392;52.578;13.426;2023-04-01T10:47:43;9.47;;;8.57;;
4756;SDS011;2392;52.578;13.426;2023-04-01T10:50:56;8.93;;;8.20;;
4756;SDS011;2392;52.578;13.426;2023-04-01T10:53:40;8.50;;;7.80;;
4756;SDS011;2392;52.578;13.426;2023-04-01T11:13:27;8.90;;;8.10;;
4756;SDS011;2392;52.578;13.426;2023-04-01T11:16:34;9.77;;;8.77;;
4756;SDS011;2392;52.578;13.426;2023-04-01T11:22:29;8.00;;;7.30;;
4756;SDS011;2392;52.578;13.426;2023-04-01T11:25:20;8.60;;;7.80;;
4756;SDS011;2392;52.578;13.426;2023-04-01T11:31:45;10.53;;;9.43;;
4756;SDS011;2392;52.578;13.426;2023-04-01T11:34:28;10.67;;;9.63;;
4756;SDS011;2392;52.578;13.426;2023-04-01T11:37:08;9.80;;;8.87;;
4756;SDS011;2392;52.578;13.426;2023-04-01T11:40:04;10.40;;;9.40;;
4756;SDS011;2392;52.578;13.426;2023-04-01T11:43:08;12.10;;;9.60;;
4756;SDS011;2392;52.578;13.426;2023-04-01T11:46:14;10.20;;;9.30;;
4756;SDS011;2392;52.578;13.426;2023-04-01T11:48:52;9.97;;;9.10;;
4756;SDS011;2392;52.578;13.426;2023-04-01T11:51:39;9.87;;;8.97;;
4756;SDS011;2392;52.578;13.426;2023-04-01T11:54:23;9.00;;;8.20;;
4756;SDS011;2392;52.578;13.426;2023-04-01T11:57:06;8.63;;;7.93;;
4756;SDS011;2392;52.578;13.426;2023-04-01T11:59:47;9.93;;;9.10;;
4756;SDS011;2392;52.578;13.426;2023-04-01T12:02:25;10.80;;;9.80;;
4756;SDS011;2392;52.578;13.426;2023-04-01T12:05:03;10.67;;;9.73;;
4756;SDS011;2392;52.578;13.426;2023-04-01T12:07:50;9.90;;;9.03;;
4756;SDS011;2392;52.578;13.426;2023-04-01T12:10:28;9.67;;;8.77;;
4756;SDS011;2392;52.578;13.426;2023-04-01T12:13:07;10.13;;;9.23;;
4756;SDS011;2392;52.578;13.426;2023-04-01T12:15:52;10.60;;;9.63;;
4756;SDS011;2392;52.578;13.426;2023-04-01T12:18:30;9.00;;;8.10;;
4756;SDS011;2392;52.578;13.426;2023-04-01T12:21:05;9.60;;;8.80;;
4756;SDS011;2392;52.578;13.426;2023-04-01T12:23:51;10.63;;;9.17;;
4756;SDS011;2392;52.578;13.426;2023-04-01T12:26:32;11.00;;;9.50;;
4756;SDS011;2392;52.578;13.426;2023-04-01T12:32:17;9.33;;;8.43;;
4756;SDS011;2392;52.578;13.426;2023-04-01T12:34:57;9.87;;;8.97;;
4756;SDS011;2392;52.578;13.426;2023-04-01T12:37:39;9.90;;;9.10;;
4756;SDS011;2392;52.578;13.426;2023-04-01T12:43:26;12.20;;;9.37;;
4756;SDS011;2392;52.578;13.426;2023-04-01T12:46:11;11.27;;;10.10;;
4756;SDS011;2392;52.578;13.426;2023-04-01T12:55:00;12.37;;;11.07;;
4756;SDS011;2392;52.578;13.426;2023-04-01T12:57:56;11.30;;;10.07;;
4756;SDS011;2392;52.578;13.426;2023-04-01T13:00:32;11.77;;;10.67;;
4756;SDS011;2392;52.578;13.426;2023-04-01T13:03:31;10.90;;;9.80;;
4756;SDS011;2392;52.578;13.426;2023-04-01T13:06:19;11.67;;;10.50;;
4756;SDS011;2392;52.578;13.426;2023-04-01T13:08:55;13.70;;;12.30;;
4756;SDS011;2392;52.578;13.426;2023-04-01T13:11:36;11.50;;;10.40;;
4756;SDS011;2392;52.578;13.426;2023-04-01T13:14:30;12.50;;;11.30;;
4756;SDS011;2392;52.578;13.426;2023-04-01T13:17:21;10.63;;;9.73;;
4756;SDS011;2392;52.578;13.426;2023-04-01T13:19:53;10.57;;;9.53;;
4756;SDS011;2392;52.578;13.426;2023-04-01T13:22:27;9.00;;;8.13;;
4756;SDS011;2392;52.578;13.426;2023-04-01T13:25:01;10.33;;;8.87;;
4756;SDS011;2392;52.578;13.426;2023-04-01T13:27:37;9.97;;;8.97;;
4756;SDS011;2392;52.578;13.426;2023-04-01T13:30:18;9.20;;;7.73;;
4756;SDS011;2392;52.578;13.426;2023-04-01T13:32:54;9.00;;;8.17;;
4756;SDS011;2392;52.578;13.426;2023-04-01T13:35:35;9.00;;;8.20;;
4756;SDS011;2392;52.578;13.426;2023-04-01T13:38:16;7.73;;;6.93;;
4756;SDS011;2392;52.578;13.426;2023-04-01T13:41:00;7.90;;;6.60;;
4756;SDS011;2392;52.578;13.426;2023-04-01T13:43:36;6.90;;;6.33;;
4756;SDS011;2392;52.578;13.426;2023-04-01T13:49:13;7.80;;;5.83;;
4756;SDS011;2392;52.578;13.426;2023-04-01T13:52:12;5.07;;;4.67;;
4756;SDS011;2392;52.578;13.426;2023-04-01T13:55:16;6.33;;;5.83;;
4756;SDS011;2392;52.578;13.426;2023-04-01T13:58:11;6.50;;;5.90;;
4756;SDS011;2392;52.578;13.426;2023-04-01T14:00:58;5.17;;;4.67;;
4756;SDS011;2392;52.578;13.426;2023-04-01T14:03:32;4.33;;;3.90;;
4756;SDS011;2392;52.578;13.426;2023-04-01T14:06:11;4.37;;;3.97;;
4756;SDS011;2392;52.578;13.426;2023-04-01T14:11:55;4.67;;;4.23;;
4756;SDS011;2392;52.578;13.426;2023-04-01T14:14:33;6.30;;;4.40;;
4756;SDS011;2392;52.578;13.426;2023-04-01T14:17:18;4.70;;;4.30;;
4756;SDS011;2392;52.578;13.426;2023-04-01T14:20:21;4.20;;;3.80;;
4756;SDS011;2392;52.578;13.426;2023-04-01T14:22:57;4.37;;;3.77;;
4756;SDS011;2392;52.578;13.426;2023-04-01T14:25:47;4.23;;;3.80;;
4756;SDS011;2392;52.578;13.426;2023-04-01T14:28:25;4.57;;;4.10;;
4756;SDS011;2392;52.578;13.426;2023-04-01T14:31:03;5.63;;;4.50;;
4756;SDS011;2392;52.578;13.426;2023-04-01T14:33:42;5.63;;;3.83;;
4756;SDS011;2392;52.578;13.426;2023-04-01T14:36:27;4.00;;;3.60;;
4756;SDS011;2392;52.578;13.426;2023-04-01T14:39:07;5.87;;;5.27;;
4756;SDS011;2392;52.578;13.426;2023-04-01T14:41:46;4.53;;;3.90;;
4756;SDS011;2392;52.578;13.426;2023-04-01T14:44:18;5.00;;;3.63;;
4756;SDS011;2392;52.578;13.426;2023-04-01T14:50:05;3.90;;;3.60;;
4756;SDS011;2392;52.578;13.426;2023-04-01T14:52:36;4.40;;;4.00;;
4756;SDS011;2392;52.578;13.426;2023-04-01T14:55:17;4.07;;;3.63;;
4756;SDS011;2392;52.578;13.426;2023-04-01T15:03:45;8.03;;;4.37;;
4756;SDS011;2392;52.578;13.426;2023-04-01T15:06:30;4.20;;;3.83;;
4756;SDS011;2392;52.578;13.426;2023-04-01T15:09:23;4.30;;;3.80;;
4756;SDS011;2392;52.578;13.426;2023-04-01T15:11:59;4.80;;;4.27;;
4756;SDS011;2392;52.578;13.426;2023-04-01T15:14:42;4.47;;;4.10;;
4756;SDS011;2392;52.578;13.426;2023-04-01T15:20:24;5.10;;;4.63;;
4756;SDS011;2392;52.578;13.426;2023-04-01T15:23:04;7.40;;;4.83;;
4756;SDS011;2392;52.578;13.426;2023-04-01T15:25:43;5.10;;;4.70;;
4756;SDS011;2392;52.578;13.426;2023-04-01T15:28:20;5.83;;;5.23;;
4756;SDS011;2392;52.578;13.426;2023-04-01T15:30:54;6.50;;;5.67;;
4756;SDS011;2392;52.578;13.426;2023-04-01T15:33:33;6.10;;;5.57;;
4756;SDS011;2392;52.578;13.426;2023-04-01T15:36:18;6.43;;;5.83;;
4756;SDS011;2392;52.578;13.426;2023-04-01T15:39:00;5.40;;;5.00;;
4756;SDS011;2392;52.578;13.426;2023-04-01T15:41:39;6.73;;;4.57;;
4756;SDS011;2392;52.578;13.426;2023-04-01T15:47:08;7.13;;;5.63;;
4756;SDS011;2392;52.578;13.426;2023-04-01T15:50:03;4.57;;;4.00;;
4756;SDS011;2392;52.578;13.426;2023-04-01T15:52:51;5.23;;;4.73;;
4756;SDS011;2392;52.578;13.426;2023-04-01T15:55:27;4.50;;;3.97;;
4756;SDS011;2392;52.578;13.426;2023-04-01T15:58:03;6.70;;;4.50;;
4756;SDS011;2392;52.578;13.426;2023-04-01T16:00:48;5.00;;;4.50;;
4756;SDS011;2392;52.578;13.426;2023-04-01T16:03:23;7.20;;;5.53;;
4756;SDS011;2392;52.578;13.426;2023-04-01T16:06:01;4.10;;;3.80;;
4756;SDS011;2392;52.578;13.426;2023-04-01T16:08:58;6.30;;;4.97;;
4756;SDS011;2392;52.578;13.426;2023-04-01T16:11:43;5.63;;;4.27;;
4756;SDS011;2392;52.578;13.426;2023-04-01T16:14:20;4.20;;;3.80;;
4756;SDS011;2392;52.578;13.426;2023-04-01T16:17:02;4.40;;;4.10;;
4756;SDS011;2392;52.578;13.426;2023-04-01T16:19:41;4.67;;;4.27;;
4756;SDS011;2392;52.578;13.426;2023-04-01T16:22:19;4.40;;;3.63;;
4756;SDS011;2392;52.578;13.426;2023-04-01T16:24:53;4.70;;;4.17;;
4756;SDS011;2392;52.578;13.426;2023-04-01T16:27:41;4.40;;;3.87;;
4756;SDS011;2392;52.578;13.426;2023-04-01T16:30:24;3.63;;;3.30;;
4756;SDS011;2392;52.578;13.426;2023-04-01T16:32:59;4.37;;;3.97;;
4756;SDS011;2392;52.578;13.426;2023-04-01T16:35:33;3.63;;;3.00;;
4756;SDS011;2392;52.578;13.426;2023-04-01T16:38:08;7.90;;;3.50;;
4756;SDS011;2392;52.578;13.426;2023-04-01T16:40:44;4.33;;;3.10;;
4756;SDS011;2392;52.578;13.426;2023-04-01T16:43:19;3.67;;;3.43;;
4756;SDS011;2392;52.578;13.426;2023-04-01T16:45:54;3.10;;;2.90;;
4756;SDS011;2392;52.578;13.426;2023-04-01T16:48:36;4.77;;;3.10;;
4756;SDS011;2392;52.578;13.426;2023-04-01T16:51:18;4.30;;;3.17;;
4756;SDS011;2392;52.578;13.426;2023-04-01T16:53:47;3.67;;;3.03;;
4756;SDS011;2392;52.578;13.426;2023-04-01T16:56:20;3.30;;;3.10;;
4756;SDS011;2392;52.578;13.426;2023-04-01T16:58:55;3.30;;;3.00;;
4756;SDS011;2392;52.578;13.426;2023-04-01T17:01:26;3.60;;;3.30;;
4756;SDS011;2392;52.578;13.426;2023-04-01T17:03:57;4.87;;;3.43;;
4756;SDS011;2392;52.578;13.426;2023-04-01T17:06:28;3.20;;;2.90;;
4756;SDS011;2392;52.578;13.426;2023-04-01T17:09:02;3.97;;;3.67;;
4756;SDS011;2392;52.578;13.426;2023-04-01T17:11:41;5.20;;;3.93;;
4756;SDS011;2392;52.578;13.426;2023-04-01T17:14:14;4.90;;;3.90;;
4756;SDS011;2392;52.578;13.426;2023-04-01T17:16:54;5.43;;;3.33;;
4756;SDS011;2392;52.578;13.426;2023-04-01T17:19:34;3.50;;;3.20;;
4756;SDS011;2392;52.578;13.426;2023-04-01T17:22:29;4.93;;;3.60;;
4756;SDS011;2392;52.578;13.426;2023-04-01T17:27:57;4.20;;;3.90;;
4756;SDS011;2392;52.578;13.426;2023-04-01T17:30:32;5.80;;;3.57;;
4756;SDS011;2392;52.578;13.426;2023-04-01T17:33:13;4.60;;;3.83;;
4756;SDS011;2392;52.578;13.426;2023-04-01T17:36:04;4.83;;;3.33;;
4756;SDS011;2392;52.578;13.426;2023-04-01T17:41:48;3.83;;;3.30;;
4756;SDS011;2392;52.578;13.426;2023-04-01T17:44:28;5.20;;;4.27;;
4756;SDS011;2392;52.578;13.426;2023-04-01T17:47:07;5.23;;;4.50;;
4756;SDS011;2392;52.578;13.426;2023-04-01T17:49:51;4.90;;;4.00;;